EIN38W EGPH-EIDW
Flight info
| Callsign | EIN38W |
|---|---|
| Flight time | 0h 41m |
| Altitude | 22000 |
| Route | GOSAM1C GOSAM P600 TRN/N0407F240 DCT BLACA P620 NIMAT NIMAT4L |
| Aircraft | A320/M-FAA/L |
Departure
| Time | 2026-05-07 20:27 |
|---|---|
| Airport | Edinburgh Airport (EGPH) |
Arrival
| Time | 2026-05-07 21:08 |
|---|---|
| Airport | Dublin Airport (EIDW) |
| Time | Latitude | Longitude | Altitude | Speed | Heading |
|---|---|---|---|---|---|
| 2026-05-07 20:10 | 55.94919 | -3.36428 | 105 ft | 0 kts | 148° |
| 2026-05-07 20:21 | 55.94921 | -3.36431 | 116 ft | 2 kts | 148° |
| 2026-05-07 20:21 | 55.94935 | -3.36446 | 113 ft | 2 kts | 148° |
| 2026-05-07 20:21 | 55.94950 | -3.36462 | 112 ft | 2 kts | 148° |
| 2026-05-07 20:21 | 55.94963 | -3.36483 | 113 ft | 3 kts | 114° |
| 2026-05-07 20:22 | 55.94967 | -3.36513 | 113 ft | 3 kts | 77° |
| 2026-05-07 20:22 | 55.94965 | -3.36528 | 116 ft | 0 kts | 59° |
| 2026-05-07 20:23 | 55.94987 | -3.36476 | 115 ft | 15 kts | 58° |
| 2026-05-07 20:24 | 55.95049 | -3.36397 | 114 ft | 8 kts | 343° |
| 2026-05-07 20:24 | 55.95109 | -3.36354 | 116 ft | 17 kts | 52° |
| 2026-05-07 20:24 | 55.95170 | -3.36176 | 115 ft | 16 kts | 59° |
| 2026-05-07 20:24 | 55.95233 | -3.35989 | 115 ft | 21 kts | 59° |
| 2026-05-07 20:25 | 55.95306 | -3.35772 | 113 ft | 19 kts | 58° |
| 2026-05-07 20:25 | 55.95373 | -3.35574 | 115 ft | 18 kts | 59° |
| 2026-05-07 20:25 | 55.95437 | -3.35413 | 115 ft | 14 kts | 30° |
| 2026-05-07 20:25 | 55.95505 | -3.35447 | 113 ft | 8 kts | 329° |
| 2026-05-07 20:26 | 55.95563 | -3.35519 | 113 ft | 14 kts | 306° |
| 2026-05-07 20:26 | 55.95519 | -3.35715 | 113 ft | 19 kts | 239° |
| 2026-05-07 20:26 | 55.95325 | -3.36286 | 110 ft | 99 kts | 239° |
| 2026-05-07 20:26 | 55.94828 | -3.37758 | 159 ft | 170 kts | 238° |
| 2026-05-07 20:27 | 55.94185 | -3.39736 | 753 ft | 198 kts | 237° |
| 2026-05-07 20:27 | 55.93431 | -3.42042 | 1387 ft | 231 kts | 237° |
| 2026-05-07 20:27 | 55.92586 | -3.44615 | 2141 ft | 249 kts | 237° |
| 2026-05-07 20:27 | 55.91751 | -3.47196 | 2886 ft | 234 kts | 238° |
| 2026-05-07 20:28 | 55.90966 | -3.49774 | 3689 ft | 240 kts | 240° |
| 2026-05-07 20:28 | 55.90386 | -3.52600 | 4555 ft | 248 kts | 253° |
| 2026-05-07 20:28 | 55.89993 | -3.55602 | 5281 ft | 250 kts | 256° |
| 2026-05-07 20:28 | 55.89651 | -3.58675 | 5863 ft | 256 kts | 257° |
| 2026-05-07 20:29 | 55.89331 | -3.61800 | 6002 ft | 256 kts | 258° |
| 2026-05-07 20:29 | 55.89023 | -3.64913 | 6023 ft | 255 kts | 258° |
| 2026-05-07 20:29 | 55.88716 | -3.68030 | 6028 ft | 256 kts | 258° |
| 2026-05-07 20:29 | 55.88409 | -3.71151 | 6030 ft | 255 kts | 258° |
| 2026-05-07 20:30 | 55.88102 | -3.74266 | 6030 ft | 255 kts | 258° |
| 2026-05-07 20:30 | 55.87793 | -3.77380 | 6024 ft | 255 kts | 257° |
| 2026-05-07 20:30 | 55.87483 | -3.80492 | 6020 ft | 255 kts | 258° |
| 2026-05-07 20:30 | 55.87174 | -3.83606 | 6021 ft | 255 kts | 257° |
| 2026-05-07 20:31 | 55.86867 | -3.86717 | 6036 ft | 254 kts | 257° |
| 2026-05-07 20:31 | 55.86558 | -3.89815 | 6419 ft | 256 kts | 257° |
| 2026-05-07 20:31 | 55.86243 | -3.92961 | 6801 ft | 258 kts | 257° |
| 2026-05-07 20:31 | 55.85928 | -3.96105 | 7175 ft | 259 kts | 257° |
| 2026-05-07 20:32 | 55.85608 | -3.99263 | 7557 ft | 260 kts | 257° |
| 2026-05-07 20:32 | 55.85286 | -4.02430 | 8000 ft | 260 kts | 257° |
| 2026-05-07 20:32 | 55.84969 | -4.05564 | 8520 ft | 262 kts | 257° |
| 2026-05-07 20:32 | 55.84636 | -4.08769 | 9055 ft | 263 kts | 254° |
| 2026-05-07 20:33 | 55.84013 | -4.11824 | 9596 ft | 263 kts | 241° |
| 2026-05-07 20:33 | 55.82993 | -4.14520 | 10116 ft | 264 kts | 228° |
| 2026-05-07 20:33 | 55.81628 | -4.16709 | 10610 ft | 266 kts | 216° |
| 2026-05-07 20:33 | 55.80085 | -4.18564 | 11118 ft | 268 kts | 215° |
| 2026-05-07 20:34 | 55.78537 | -4.20440 | 11628 ft | 270 kts | 215° |
| 2026-05-07 20:34 | 55.76986 | -4.22351 | 12151 ft | 272 kts | 216° |
| 2026-05-07 20:34 | 55.75432 | -4.24284 | 12682 ft | 275 kts | 216° |
| 2026-05-07 20:34 | 55.73859 | -4.26249 | 13211 ft | 277 kts | 216° |
| 2026-05-07 20:35 | 55.72279 | -4.28224 | 13760 ft | 279 kts | 216° |
| 2026-05-07 20:35 | 55.70683 | -4.30217 | 14244 ft | 281 kts | 216° |
| 2026-05-07 20:35 | 55.69074 | -4.32215 | 14741 ft | 283 kts | 215° |
| 2026-05-07 20:35 | 55.67457 | -4.34216 | 15242 ft | 284 kts | 215° |
| 2026-05-07 20:36 | 55.65833 | -4.36221 | 15735 ft | 285 kts | 215° |
| 2026-05-07 20:36 | 55.64198 | -4.38239 | 16253 ft | 287 kts | 215° |
| 2026-05-07 20:36 | 55.62555 | -4.40264 | 16775 ft | 288 kts | 215° |
| 2026-05-07 20:36 | 55.60901 | -4.42302 | 17319 ft | 291 kts | 215° |
| 2026-05-07 20:37 | 55.59236 | -4.44355 | 17862 ft | 293 kts | 216° |
| 2026-05-07 20:37 | 55.57561 | -4.46421 | 18391 ft | 295 kts | 215° |
| 2026-05-07 20:37 | 55.55870 | -4.48502 | 18871 ft | 297 kts | 216° |
| 2026-05-07 20:37 | 55.54173 | -4.50589 | 19358 ft | 299 kts | 215° |
| 2026-05-07 20:38 | 55.52460 | -4.52692 | 19855 ft | 301 kts | 215° |
| 2026-05-07 20:38 | 55.50729 | -4.54809 | 20364 ft | 304 kts | 215° |
| 2026-05-07 20:38 | 55.48999 | -4.56917 | 20873 ft | 306 kts | 215° |
| 2026-05-07 20:38 | 55.47236 | -4.59063 | 21399 ft | 309 kts | 215° |
| 2026-05-07 20:39 | 55.45458 | -4.61228 | 21847 ft | 313 kts | 215° |
| 2026-05-07 20:39 | 55.43666 | -4.63413 | 21933 ft | 314 kts | 215° |
| 2026-05-07 20:39 | 55.41870 | -4.65604 | 21945 ft | 314 kts | 215° |
| 2026-05-07 20:39 | 55.40077 | -4.67787 | 21946 ft | 313 kts | 215° |
| 2026-05-07 20:40 | 55.38284 | -4.69965 | 21943 ft | 314 kts | 215° |
| 2026-05-07 20:40 | 55.36484 | -4.72149 | 21950 ft | 314 kts | 215° |
| 2026-05-07 20:40 | 55.34688 | -4.74326 | 21959 ft | 314 kts | 215° |
| 2026-05-07 20:40 | 55.32888 | -4.76507 | 21959 ft | 313 kts | 215° |
| 2026-05-07 20:41 | 55.31062 | -4.78600 | 21957 ft | 314 kts | 210° |
| 2026-05-07 20:41 | 55.29118 | -4.80343 | 21959 ft | 314 kts | 208° |
| 2026-05-07 20:41 | 55.27162 | -4.82059 | 21961 ft | 315 kts | 208° |
| 2026-05-07 20:41 | 55.25205 | -4.83778 | 21965 ft | 315 kts | 208° |
| 2026-05-07 20:42 | 55.23248 | -4.85496 | 21966 ft | 315 kts | 208° |
| 2026-05-07 20:42 | 55.21291 | -4.87216 | 21964 ft | 315 kts | 208° |
| 2026-05-07 20:42 | 55.19332 | -4.88937 | 21961 ft | 314 kts | 208° |
| 2026-05-07 20:42 | 55.17374 | -4.90652 | 21963 ft | 315 kts | 208° |
| 2026-05-07 20:43 | 55.15415 | -4.92367 | 21962 ft | 315 kts | 208° |
| 2026-05-07 20:43 | 55.13459 | -4.94079 | 21959 ft | 315 kts | 208° |
| 2026-05-07 20:43 | 55.11502 | -4.95789 | 21966 ft | 315 kts | 208° |
| 2026-05-07 20:43 | 55.09534 | -4.97506 | 21955 ft | 315 kts | 208° |
| 2026-05-07 20:44 | 55.07578 | -4.99212 | 21960 ft | 315 kts | 208° |
| 2026-05-07 20:44 | 55.05612 | -5.00925 | 21960 ft | 315 kts | 208° |
| 2026-05-07 20:44 | 55.03652 | -5.02630 | 21971 ft | 327 kts | 208° |
| 2026-05-07 20:44 | 55.01550 | -5.04460 | 21970 ft | 348 kts | 208° |
| 2026-05-07 20:45 | 55.00058 | -5.05756 | 21970 ft | 361 kts | 207° |
| 2026-05-07 20:45 | 54.96995 | -5.08405 | 21963 ft | 377 kts | 207° |
| 2026-05-07 20:45 | 54.94633 | -5.10443 | 21964 ft | 379 kts | 207° |
| 2026-05-07 20:45 | 54.92265 | -5.12486 | 21971 ft | 380 kts | 207° |
| 2026-05-07 20:46 | 54.90661 | -5.13870 | 21967 ft | 380 kts | 207° |
| 2026-05-07 20:46 | 54.88240 | -5.15726 | 21966 ft | 381 kts | 200° |
| 2026-05-07 20:46 | 54.85701 | -5.16871 | 21973 ft | 383 kts | 194° |
| 2026-05-07 20:46 | 54.83092 | -5.17823 | 21964 ft | 383 kts | 194° |
| 2026-05-07 20:47 | 54.80482 | -5.18779 | 21970 ft | 383 kts | 194° |
| 2026-05-07 20:47 | 54.77872 | -5.19738 | 21961 ft | 384 kts | 194° |
| 2026-05-07 20:47 | 54.75264 | -5.20696 | 21964 ft | 384 kts | 194° |
| 2026-05-07 20:47 | 54.72646 | -5.21657 | 21959 ft | 384 kts | 194° |
| 2026-05-07 20:48 | 54.70036 | -5.22616 | 21960 ft | 384 kts | 194° |
| 2026-05-07 20:48 | 54.67424 | -5.23578 | 21963 ft | 384 kts | 194° |
| 2026-05-07 20:48 | 54.64806 | -5.24538 | 21964 ft | 384 kts | 194° |
| 2026-05-07 20:48 | 54.62199 | -5.25490 | 21969 ft | 384 kts | 194° |
| 2026-05-07 20:49 | 54.59574 | -5.26449 | 21968 ft | 384 kts | 194° |
| 2026-05-07 20:49 | 54.56958 | -5.27403 | 21963 ft | 385 kts | 194° |
| 2026-05-07 20:49 | 54.54337 | -5.28355 | 21960 ft | 385 kts | 194° |
| 2026-05-07 20:49 | 54.51720 | -5.29303 | 21963 ft | 385 kts | 194° |
| 2026-05-07 20:50 | 54.49129 | -5.30426 | 21963 ft | 383 kts | 201° |
| 2026-05-07 20:50 | 54.46693 | -5.32236 | 21965 ft | 381 kts | 208° |
| 2026-05-07 20:50 | 54.44312 | -5.34271 | 21964 ft | 381 kts | 208° |
| 2026-05-07 20:50 | 54.41932 | -5.36290 | 21965 ft | 381 kts | 207° |
| 2026-05-07 20:51 | 54.39552 | -5.38297 | 21965 ft | 381 kts | 207° |
| 2026-05-07 20:51 | 54.37166 | -5.40304 | 21963 ft | 381 kts | 207° |
| 2026-05-07 20:51 | 54.34786 | -5.42305 | 21964 ft | 382 kts | 207° |
| 2026-05-07 20:51 | 54.32401 | -5.44310 | 21962 ft | 382 kts | 207° |
| 2026-05-07 20:52 | 54.30014 | -5.46318 | 21959 ft | 382 kts | 207° |
| 2026-05-07 20:52 | 54.27634 | -5.48319 | 21960 ft | 382 kts | 207° |
| 2026-05-07 20:52 | 54.25280 | -5.50298 | 21958 ft | 382 kts | 207° |
| 2026-05-07 20:52 | 54.22893 | -5.52296 | 21960 ft | 382 kts | 207° |
| 2026-05-07 20:53 | 54.20508 | -5.54289 | 21956 ft | 382 kts | 207° |
| 2026-05-07 20:53 | 54.18122 | -5.56278 | 21958 ft | 382 kts | 207° |
| 2026-05-07 20:53 | 54.15734 | -5.58268 | 21958 ft | 382 kts | 207° |
| 2026-05-07 20:53 | 54.13334 | -5.60212 | 21956 ft | 383 kts | 203° |
| 2026-05-07 20:54 | 54.10793 | -5.61569 | 21695 ft | 383 kts | 198° |
| 2026-05-07 20:54 | 54.08231 | -5.62809 | 21092 ft | 380 kts | 198° |
| 2026-05-07 20:54 | 54.05694 | -5.64010 | 20498 ft | 377 kts | 198° |
| 2026-05-07 20:54 | 54.03180 | -5.65191 | 19913 ft | 374 kts | 198° |
| 2026-05-07 20:55 | 54.00685 | -5.66362 | 19351 ft | 371 kts | 198° |
| 2026-05-07 20:55 | 53.98210 | -5.67525 | 18781 ft | 368 kts | 198° |
| 2026-05-07 20:55 | 53.95811 | -5.68654 | 18246 ft | 365 kts | 198° |
| 2026-05-07 20:55 | 53.93369 | -5.69805 | 17615 ft | 362 kts | 198° |
| 2026-05-07 20:56 | 53.90949 | -5.70948 | 16995 ft | 359 kts | 198° |
| 2026-05-07 20:56 | 53.88548 | -5.72085 | 16386 ft | 357 kts | 198° |
| 2026-05-07 20:56 | 53.86168 | -5.73208 | 15786 ft | 354 kts | 198° |
| 2026-05-07 20:56 | 53.83847 | -5.74302 | 15206 ft | 339 kts | 198° |
| 2026-05-07 20:57 | 53.81608 | -5.75351 | 14634 ft | 328 kts | 198° |
| 2026-05-07 20:57 | 53.79427 | -5.76372 | 14073 ft | 324 kts | 198° |
| 2026-05-07 20:57 | 53.77264 | -5.77388 | 13479 ft | 321 kts | 198° |
| 2026-05-07 20:57 | 53.75117 | -5.78392 | 12860 ft | 319 kts | 197° |
| 2026-05-07 20:58 | 53.72989 | -5.79386 | 12242 ft | 316 kts | 197° |
| 2026-05-07 20:58 | 53.70876 | -5.80371 | 11496 ft | 312 kts | 197° |
| 2026-05-07 20:58 | 53.68812 | -5.81334 | 10767 ft | 305 kts | 197° |
| 2026-05-07 20:58 | 53.66780 | -5.82281 | 10051 ft | 299 kts | 197° |
| 2026-05-07 20:59 | 53.64792 | -5.83205 | 9284 ft | 294 kts | 196° |
| 2026-05-07 20:59 | 53.62835 | -5.84118 | 8507 ft | 289 kts | 197° |
| 2026-05-07 20:59 | 53.60909 | -5.85015 | 7752 ft | 285 kts | 197° |
| 2026-05-07 20:59 | 53.59017 | -5.85898 | 7014 ft | 280 kts | 197° |
| 2026-05-07 21:00 | 53.57153 | -5.86768 | 6284 ft | 276 kts | 197° |
| 2026-05-07 21:00 | 53.55315 | -5.87622 | 5519 ft | 272 kts | 197° |
| 2026-05-07 21:00 | 53.53503 | -5.88458 | 4760 ft | 268 kts | 197° |
| 2026-05-07 21:00 | 53.51718 | -5.89282 | 4014 ft | 264 kts | 197° |
| 2026-05-07 21:01 | 53.49956 | -5.90099 | 3299 ft | 261 kts | 197° |
| 2026-05-07 21:01 | 53.48271 | -5.90878 | 3060 ft | 251 kts | 197° |
| 2026-05-07 21:01 | 53.46643 | -5.91629 | 2992 ft | 230 kts | 197° |
| 2026-05-07 21:01 | 53.45165 | -5.92309 | 3004 ft | 215 kts | 198° |
| 2026-05-07 21:02 | 53.43738 | -5.92966 | 3003 ft | 211 kts | 198° |
| 2026-05-07 21:02 | 53.42461 | -5.93907 | 3010 ft | 190 kts | 216° |
| 2026-05-07 21:02 | 53.41517 | -5.95345 | 3019 ft | 180 kts | 232° |
| 2026-05-07 21:02 | 53.40895 | -5.97135 | 3001 ft | 177 kts | 249° |
| 2026-05-07 21:03 | 53.40620 | -5.99135 | 3005 ft | 176 kts | 265° |
| 2026-05-07 21:03 | 53.40678 | -6.01174 | 2969 ft | 172 kts | 274° |
| 2026-05-07 21:03 | 53.40789 | -6.03115 | 2803 ft | 160 kts | 274° |
| 2026-05-07 21:03 | 53.40890 | -6.04859 | 2631 ft | 143 kts | 274° |
| 2026-05-07 21:04 | 53.40982 | -6.06480 | 2453 ft | 137 kts | 273° |
| 2026-05-07 21:04 | 53.41071 | -6.08053 | 2265 ft | 134 kts | 273° |
| 2026-05-07 21:04 | 53.41159 | -6.09604 | 2093 ft | 133 kts | 273° |
| 2026-05-07 21:04 | 53.41247 | -6.11153 | 1910 ft | 133 kts | 273° |
| 2026-05-07 21:05 | 53.41334 | -6.12703 | 1732 ft | 133 kts | 273° |
| 2026-05-07 21:05 | 53.41421 | -6.14244 | 1546 ft | 133 kts | 272° |
| 2026-05-07 21:05 | 53.41507 | -6.15765 | 1364 ft | 133 kts | 272° |
| 2026-05-07 21:05 | 53.41594 | -6.17319 | 1179 ft | 135 kts | 272° |
| 2026-05-07 21:06 | 53.41682 | -6.18887 | 981 ft | 135 kts | 273° |
| 2026-05-07 21:06 | 53.41769 | -6.20458 | 802 ft | 135 kts | 272° |
| 2026-05-07 21:06 | 53.41857 | -6.22024 | 618 ft | 135 kts | 273° |
| 2026-05-07 21:06 | 53.41949 | -6.23590 | 428 ft | 135 kts | 273° |
| 2026-05-07 21:07 | 53.42032 | -6.25155 | 251 ft | 134 kts | 273° |
| 2026-05-07 21:07 | 53.42106 | -6.26567 | 213 ft | 98 kts | 276° |
| 2026-05-07 21:07 | 53.42160 | -6.27494 | 210 ft | 69 kts | 275° |
| 2026-05-07 21:07 | 53.42235 | -6.28195 | 214 ft | 53 kts | 299° |
| 2026-05-07 21:08 | 53.42350 | -6.28305 | 217 ft | 0 kts | 35° |
| 2026-05-07 21:09 | 53.42364 | -6.28282 | 215 ft | 12 kts | 49° |
| 2026-05-07 21:09 | 53.42367 | -6.28133 | 211 ft | 13 kts | 95° |
| 2026-05-07 21:09 | 53.42360 | -6.27994 | 211 ft | 12 kts | 95° |
| 2026-05-07 21:09 | 53.42350 | -6.27818 | 220 ft | 16 kts | 95° |
| 2026-05-07 21:10 | 53.42340 | -6.27642 | 211 ft | 14 kts | 95° |
| 2026-05-07 21:10 | 53.42331 | -6.27486 | 211 ft | 13 kts | 95° |
| 2026-05-07 21:10 | 53.42323 | -6.27342 | 211 ft | 12 kts | 95° |
| 2026-05-07 21:10 | 53.42316 | -6.27212 | 211 ft | 11 kts | 95° |
| 2026-05-07 21:11 | 53.42307 | -6.27040 | 220 ft | 21 kts | 95° |
| 2026-05-07 21:11 | 53.42293 | -6.26786 | 211 ft | 23 kts | 95° |
| 2026-05-07 21:11 | 53.42262 | -6.26225 | 211 ft | 26 kts | 95° |
| 2026-05-07 21:12 | 53.42246 | -6.25917 | 211 ft | 27 kts | 95° |
| 2026-05-07 21:12 | 53.42227 | -6.25594 | 211 ft | 29 kts | 95° |
| 2026-05-07 21:12 | 53.42209 | -6.25259 | 216 ft | 26 kts | 95° |
| 2026-05-07 21:12 | 53.42197 | -6.25033 | 211 ft | 17 kts | 95° |
| 2026-05-07 21:13 | 53.42187 | -6.24848 | 211 ft | 15 kts | 95° |
| 2026-05-07 21:13 | 53.42178 | -6.24679 | 211 ft | 14 kts | 95° |
| 2026-05-07 21:13 | 53.42170 | -6.24525 | 211 ft | 13 kts | 95° |
| 2026-05-07 21:13 | 53.42163 | -6.24385 | 220 ft | 11 kts | 95° |
| 2026-05-07 21:14 | 53.42163 | -6.24261 | 211 ft | 10 kts | 73° |
| 2026-05-07 21:14 | 53.42206 | -6.24179 | 211 ft | 9 kts | 41° |
| 2026-05-07 21:14 | 53.42252 | -6.24130 | 213 ft | 7 kts | 21° |
| 2026-05-07 21:14 | 53.42298 | -6.24109 | 217 ft | 7 kts | 19° |
| 2026-05-07 21:15 | 53.42352 | -6.24125 | 216 ft | 8 kts | 318° |
| 2026-05-07 21:15 | 53.42379 | -6.24169 | 211 ft | 0 kts | 315° |